createdAt,value
2023-05-04T00:01:47.826Z,98660.66
2023-05-04T00:04:17.604Z,98664.69
2023-05-04T00:06:47.578Z,98662.28
2023-05-04T00:09:17.326Z,98664.84
2023-05-04T00:11:47.218Z,98664.59
2023-05-04T00:14:16.474Z,98669.75
2023-05-04T00:16:45.891Z,98671.81
2023-05-04T00:19:15.854Z,98674.28
2023-05-04T00:21:45.070Z,98666.31
2023-05-04T00:24:14.581Z,98669.06
2023-05-04T00:26:46.468Z,98675.25
2023-05-04T00:29:16.001Z,98675.50
2023-05-04T00:31:45.418Z,98680.44
2023-05-04T00:34:15.357Z,98679.72
2023-05-04T00:36:44.870Z,98674.84
2023-05-04T00:39:15.702Z,98666.16
2023-05-04T00:41:47.025Z,98667.03
2023-05-04T00:44:17.461Z,98674.66
2023-05-04T00:46:47.345Z,98668.34
2023-05-04T00:49:17.277Z,98670.78
2023-05-04T00:51:48.617Z,98669.41
2023-05-04T00:54:22.014Z,98670.28
2023-05-04T00:56:51.515Z,98668.56
2023-05-04T00:59:21.316Z,98671.25
2023-05-04T01:01:50.315Z,98667.50
2023-05-04T01:04:21.225Z,98665.84
2023-05-04T01:06:58.871Z,98666.84
2023-05-04T01:09:53.731Z,98661.41
2023-05-04T01:12:44.226Z,98662.78
2023-05-04T01:15:14.528Z,98649.63
2023-05-04T01:17:44.251Z,98662.13
2023-05-04T01:20:13.442Z,98658.91
2023-05-04T01:22:43.041Z,98662.72
2023-05-04T01:25:13.054Z,98664.66
2023-05-04T01:27:51.668Z,98667.31
2023-05-04T01:30:21.710Z,98666.53
2023-05-04T01:32:53.557Z,98670.34
2023-05-04T01:35:23.051Z,98675.19
2023-05-04T01:37:52.624Z,98679.56
2023-05-04T01:40:21.745Z,98687.41
2023-05-04T01:42:52.281Z,98689.34
2023-05-04T01:45:22.498Z,98701.78
2023-05-04T01:47:52.356Z,98699.09
2023-05-04T01:50:21.866Z,98697.25
2023-05-04T01:52:51.763Z,98707.22
2023-05-04T01:55:21.171Z,98717.22
2023-05-04T01:57:50.456Z,98719.13
2023-05-04T02:00:20.591Z,98720.47
2023-05-04T02:02:49.942Z,98727.22
2023-05-04T02:05:21.342Z,98722.13
2023-05-04T02:07:51.043Z,98731.00
2023-05-04T02:10:20.260Z,98735.53
2023-05-04T02:12:49.595Z,98747.03
2023-05-04T02:15:19.148Z,98754.94
2023-05-04T02:17:48.974Z,98752.28
2023-05-04T02:20:19.891Z,98752.03
2023-05-04T02:22:49.248Z,98754.03
2023-05-04T02:25:20.379Z,98746.16
2023-05-04T02:27:49.558Z,98760.06
2023-05-04T02:30:18.729Z,98751.44
2023-05-04T02:32:48.165Z,98760.03
2023-05-04T02:35:17.505Z,98760.03
2023-05-04T02:37:46.895Z,98759.09
2023-05-04T02:40:17.036Z,98760.84
2023-05-04T02:42:46.937Z,98764.78
2023-05-04T02:45:16.591Z,98761.88
2023-05-04T02:47:45.867Z,98771.66
2023-05-04T02:50:15.655Z,98767.78
2023-05-04T02:52:44.753Z,98769.66
2023-05-04T02:55:14.294Z,98765.19
2023-05-04T02:57:43.288Z,98767.16
2023-05-04T03:00:13.358Z,98764.09
2023-05-04T03:02:42.614Z,98768.28
2023-05-04T03:05:12.140Z,98771.91
2023-05-04T03:07:41.364Z,98770.41
2023-05-04T03:10:11.360Z,98766.66
2023-05-04T03:12:40.831Z,98771.53
2023-05-04T03:15:10.655Z,98770.13
2023-05-04T03:17:39.924Z,98776.31
2023-05-04T03:20:10.835Z,98773.19
2023-05-04T03:22:40.045Z,98772.31
2023-05-04T03:25:10.669Z,98784.22
2023-05-04T03:27:40.103Z,98792.50
2023-05-04T03:30:10.416Z,98788.22
2023-05-04T03:32:41.216Z,98786.38
2023-05-04T03:35:10.876Z,98793.53
2023-05-04T03:37:40.077Z,98798.88
2023-05-04T03:40:09.968Z,98797.44
2023-05-04T03:42:39.341Z,98805.13
2023-05-04T03:45:09.631Z,98799.91
2023-05-04T03:47:38.882Z,98796.63
2023-05-04T03:50:08.767Z,98792.16
2023-05-04T03:52:38.396Z,98794.72
2023-05-04T03:55:09.396Z,98800.38
2023-05-04T03:57:38.744Z,98796.84
2023-05-04T04:00:08.476Z,98795.69
2023-05-04T04:02:43.882Z,98795.81
2023-05-04T04:05:19.790Z,98804.47
2023-05-04T04:07:51.761Z,98803.56
2023-05-04T04:10:21.784Z,98802.88
2023-05-04T04:12:51.774Z,98799.34
2023-05-04T04:15:21.096Z,98808.31
2023-05-04T04:17:50.905Z,98811.13
2023-05-04T04:20:22.738Z,98812.47
2023-05-04T04:22:52.308Z,98808.13
2023-05-04T04:25:22.384Z,98809.31
2023-05-04T04:27:52.807Z,98814.06
2023-05-04T04:30:22.918Z,98804.59
2023-05-04T04:32:52.433Z,98815.56
2023-05-04T04:35:21.730Z,98811.44
2023-05-04T04:37:52.380Z,98817.78
2023-05-04T04:40:23.563Z,98822.06
2023-05-04T04:42:53.711Z,98820.94
2023-05-04T04:45:24.608Z,98827.44
2023-05-04T04:47:54.218Z,98826.50
2023-05-04T04:50:23.785Z,98817.41
2023-05-04T04:52:53.400Z,98818.00
2023-05-04T04:55:25.143Z,98821.03
2023-05-04T04:57:55.593Z,98816.69
2023-05-04T05:00:25.323Z,98816.78
2023-05-04T05:02:55.399Z,98813.41
2023-05-04T05:05:24.791Z,98815.97
2023-05-04T05:07:54.982Z,98806.16
2023-05-04T05:10:24.408Z,98805.03
2023-05-04T05:12:53.997Z,98804.22
2023-05-04T05:15:23.642Z,98808.50
2023-05-04T05:17:52.756Z,98810.50
2023-05-04T05:20:22.870Z,98808.06
2023-05-04T05:22:53.197Z,98801.59
2023-05-04T05:25:23.061Z,98803.72
2023-05-04T05:27:53.396Z,98804.03
2023-05-04T05:30:32.052Z,98793.63
2023-05-04T05:33:01.407Z,98793.81
2023-05-04T05:35:30.972Z,98796.50
2023-05-04T05:38:00.002Z,98791.53
2023-05-04T05:40:30.478Z,98793.28
2023-05-04T05:43:00.207Z,98792.94
2023-05-04T05:45:29.615Z,98790.06
2023-05-04T05:47:59.637Z,98782.03
2023-05-04T05:50:28.969Z,98783.81
2023-05-04T05:52:58.395Z,98779.47
2023-05-04T05:55:27.519Z,98772.69
2023-05-04T05:57:57.563Z,98761.72
2023-05-04T06:00:27.148Z,98765.03
2023-05-04T06:02:56.934Z,98758.97
2023-05-04T06:05:26.283Z,98755.00
2023-05-04T06:07:55.738Z,98752.59
2023-05-04T06:10:25.685Z,98747.78
2023-05-04T06:12:54.864Z,98739.56
2023-05-04T06:15:24.839Z,98737.50
2023-05-04T06:17:54.304Z,98738.28
2023-05-04T06:20:24.068Z,98736.47
2023-05-04T06:22:57.489Z,98731.66
2023-05-04T06:25:32.684Z,98726.06
2023-05-04T06:28:03.774Z,98718.66
2023-05-04T06:30:33.845Z,98710.44
2023-05-04T06:33:03.586Z,98712.50
2023-05-04T06:35:32.648Z,98707.00
2023-05-04T06:38:03.017Z,98705.78
2023-05-04T06:40:32.478Z,98699.91
2023-05-04T06:43:01.797Z,98697.09
2023-05-04T06:45:31.206Z,98696.69
2023-05-04T06:48:00.919Z,98687.91
2023-05-04T06:50:30.990Z,98683.75
2023-05-04T06:53:10.571Z,98674.19
2023-05-04T06:55:40.684Z,98679.03
2023-05-04T06:58:10.132Z,98681.09
2023-05-04T07:00:39.933Z,98666.34
2023-05-04T07:03:09.871Z,98672.53
2023-05-04T07:05:39.639Z,98663.22
2023-05-04T07:08:09.141Z,98660.28
2023-05-04T07:10:38.415Z,98662.28
2023-05-04T07:13:08.159Z,98661.00
2023-05-04T07:15:38.029Z,98665.00
2023-05-04T07:18:08.031Z,98657.03
2023-05-04T07:20:37.771Z,98659.63
2023-05-04T07:23:07.007Z,98659.38
2023-05-04T07:25:36.580Z,98664.91
2023-05-04T07:28:06.246Z,98657.59
2023-05-04T07:30:35.720Z,98654.44
2023-05-04T07:33:05.812Z,98652.56
2023-05-04T07:35:34.845Z,98649.59
2023-05-04T07:38:04.855Z,98649.09
2023-05-04T07:40:34.067Z,98644.31
2023-05-04T07:43:03.584Z,98633.66
2023-05-04T07:45:32.738Z,98632.94
2023-05-04T07:48:03.104Z,98628.63
2023-05-04T07:50:32.534Z,98628.47
2023-05-04T07:53:01.998Z,98629.69
2023-05-04T07:55:32.124Z,98628.19
2023-05-04T07:58:01.292Z,98615.56
2023-05-04T08:00:30.824Z,98616.88
2023-05-04T08:03:00.057Z,98610.19
2023-05-04T08:05:29.508Z,98603.03
2023-05-04T08:07:58.618Z,98605.34
2023-05-04T08:10:30.262Z,98597.97
2023-05-04T08:12:59.616Z,98592.34
2023-05-04T08:15:28.672Z,98591.03
2023-05-04T08:17:58.169Z,98579.47
2023-05-04T08:20:27.258Z,98575.31
2023-05-04T08:22:56.840Z,98569.88
2023-05-04T08:25:26.675Z,98568.25
2023-05-04T08:27:56.578Z,98558.88
2023-05-04T08:30:26.311Z,98562.59
2023-05-04T08:32:56.733Z,98554.97
2023-05-04T08:35:28.898Z,98549.25
2023-05-04T08:37:58.384Z,98544.13
2023-05-04T08:40:27.490Z,98543.81
2023-05-04T08:42:58.387Z,98531.16
2023-05-04T08:45:28.264Z,98530.19
2023-05-04T08:47:57.800Z,98523.56
2023-05-04T08:50:27.360Z,98519.22
2023-05-04T08:53:02.431Z,98524.13
2023-05-04T08:55:35.069Z,98519.22
2023-05-04T08:58:11.581Z,98514.41
2023-05-04T09:00:42.433Z,98503.81
2023-05-04T09:03:13.788Z,98502.59
2023-05-04T09:05:47.427Z,98491.22
2023-05-04T09:08:16.640Z,98493.28
2023-05-04T09:10:45.688Z,98481.56
2023-05-04T09:13:16.096Z,98485.44
2023-05-04T09:15:58.517Z,98484.63
2023-05-04T09:18:45.751Z,98479.19
2023-05-04T09:21:15.251Z,98470.03
2023-05-04T09:23:52.666Z,98466.59
2023-05-04T09:26:32.769Z,98468.22
2023-05-04T09:29:15.526Z,98456.34
2023-05-04T09:31:52.695Z,98453.63
2023-05-04T09:34:24.196Z,98447.81
2023-05-04T09:37:04.436Z,98449.44
2023-05-04T09:39:33.826Z,98433.34
2023-05-04T09:42:02.997Z,98439.56
2023-05-04T09:44:32.252Z,98434.25
2023-05-04T09:47:01.684Z,98434.00
2023-05-04T09:49:38.439Z,98434.34
2023-05-04T09:52:08.333Z,98430.91
2023-05-04T09:54:44.066Z,98424.59
2023-05-04T09:57:17.193Z,98422.84
2023-05-04T09:59:47.094Z,98403.53
2023-05-04T10:02:22.737Z,98399.53
2023-05-04T10:04:54.519Z,98399.91
2023-05-04T10:07:24.355Z,98390.22
2023-05-04T10:09:54.771Z,98388.47
2023-05-04T10:12:24.074Z,98388.47
2023-05-04T10:14:53.838Z,98384.16
2023-05-04T10:17:55.521Z,98382.78
2023-05-04T10:20:40.528Z,98379.31
2023-05-04T10:23:49.988Z,98377.41
2023-05-04T10:26:28.640Z,98369.41
2023-05-04T10:29:24.741Z,98366.06
2023-05-04T10:31:54.477Z,98367.22
2023-05-04T10:34:32.843Z,98357.00
2023-05-04T10:37:03.191Z,98357.00
2023-05-04T10:39:35.502Z,98342.28
2023-05-04T10:42:07.764Z,98340.38
2023-05-04T10:44:50.602Z,98333.31
2023-05-04T10:47:33.875Z,98320.78
2023-05-04T10:50:14.779Z,98318.41
2023-05-04T10:52:55.161Z,98307.34
2023-05-04T10:55:25.933Z,98306.59
2023-05-04T10:57:59.043Z,98304.06
2023-05-04T11:00:37.662Z,98297.81
2023-05-04T11:03:10.255Z,98299.06
2023-05-04T11:05:47.540Z,98295.44
2023-05-04T11:08:18.315Z,98280.66
2023-05-04T11:10:49.942Z,98281.97
2023-05-04T11:13:19.700Z,98273.75
2023-05-04T11:15:50.878Z,98279.75
2023-05-04T11:18:35.182Z,98282.53
2023-05-04T11:21:04.722Z,98287.84
2023-05-04T11:23:34.461Z,98302.56
2023-05-04T11:26:09.239Z,98301.78
2023-05-04T11:28:39.537Z,98303.53
2023-05-04T11:31:23.245Z,98307.97
2023-05-04T11:33:56.078Z,98322.53
2023-05-04T11:36:26.482Z,98315.81
2023-05-04T11:38:58.694Z,98299.47
2023-05-04T11:41:30.772Z,98290.84
2023-05-04T11:44:02.868Z,98277.13
2023-05-04T11:46:35.559Z,98272.25
2023-05-04T11:49:06.631Z,98282.50
2023-05-04T11:51:36.992Z,98292.94
2023-05-04T11:54:08.289Z,98275.69
2023-05-04T11:56:44.565Z,98273.88
2023-05-04T11:59:13.948Z,98268.56
2023-05-04T12:01:43.161Z,98260.38
2023-05-04T12:04:38.355Z,98265.16
2023-05-04T12:07:10.696Z,98277.75
2023-05-04T12:09:50.618Z,98271.00
2023-05-04T12:12:22.385Z,98267.81
2023-05-04T12:14:53.775Z,98251.38
2023-05-04T12:17:23.571Z,98258.00
2023-05-04T12:19:59.117Z,98259.34
2023-05-04T12:22:33.942Z,98271.78
2023-05-04T12:25:03.612Z,98269.06
2023-05-04T12:27:33.878Z,98253.69
2023-05-04T12:30:03.308Z,98253.63
2023-05-04T12:32:32.645Z,98255.69
2023-05-04T12:35:01.927Z,98258.03
2023-05-04T12:37:32.920Z,98267.25
2023-05-04T12:40:04.381Z,98267.38
2023-05-04T12:42:35.440Z,98274.97
2023-05-04T12:45:04.798Z,98279.41
2023-05-04T12:47:34.172Z,98272.19
2023-05-04T12:50:06.557Z,98278.19
2023-05-04T12:52:36.383Z,98278.19
2023-05-04T12:55:06.770Z,98292.31
2023-05-04T12:57:37.231Z,98297.72
2023-05-04T13:00:10.907Z,98295.31
2023-05-04T13:02:40.820Z,98287.78
2023-05-04T13:05:10.710Z,98277.41
2023-05-04T13:07:41.024Z,98262.75
2023-05-04T13:10:11.648Z,98258.56
2023-05-04T13:12:42.621Z,98255.34
2023-05-04T13:15:14.132Z,98252.91
2023-05-04T13:17:46.588Z,98250.53
2023-05-04T13:20:17.478Z,98269.53
2023-05-04T13:22:58.646Z,98267.81
2023-05-04T13:25:32.896Z,98259.97
2023-05-04T13:28:02.629Z,98250.41
2023-05-04T13:30:32.225Z,98252.00
2023-05-04T13:33:07.752Z,98254.53
2023-05-04T13:35:43.780Z,98278.78
2023-05-04T13:38:13.430Z,98293.06
2023-05-04T13:40:42.457Z,98297.69
2023-05-04T13:43:12.566Z,98295.78
2023-05-04T13:45:42.053Z,98298.19
2023-05-04T13:48:12.031Z,98307.94
2023-05-04T13:50:41.854Z,98302.22
2023-05-04T13:53:14.193Z,98296.28
2023-05-04T13:55:44.265Z,98295.56
2023-05-04T13:58:13.451Z,98304.91
2023-05-04T14:00:43.122Z,98314.72
2023-05-04T14:03:12.672Z,98326.25
2023-05-04T14:05:42.936Z,98327.16
2023-05-04T14:08:13.138Z,98327.28
2023-05-04T14:10:42.291Z,98334.84
2023-05-04T14:13:11.870Z,98343.00
2023-05-04T14:15:41.292Z,98369.34
2023-05-04T14:18:11.127Z,98388.69
2023-05-04T14:20:40.593Z,98394.41
2023-05-04T14:23:09.773Z,98393.19
2023-05-04T14:25:40.101Z,98405.88
2023-05-04T14:28:10.041Z,98410.88
2023-05-04T14:30:39.581Z,98425.19
2023-05-04T14:33:08.919Z,98420.91
2023-05-04T14:35:46.036Z,98436.09
2023-05-04T14:38:17.134Z,98451.13
2023-05-04T14:40:48.995Z,98440.53
2023-05-04T14:43:19.404Z,98453.53
2023-05-04T14:45:48.591Z,98501.59
2023-05-04T14:48:18.743Z,98494.56
2023-05-04T14:50:48.157Z,98504.97
2023-05-04T14:53:17.334Z,98519.28
2023-05-04T14:55:47.043Z,98550.69
2023-05-04T14:58:16.996Z,98556.63
2023-05-04T15:00:47.686Z,98568.09
2023-05-04T15:03:17.189Z,98565.47
2023-05-04T15:05:46.208Z,98601.09
2023-05-04T15:08:15.570Z,98611.69
2023-05-04T15:10:45.086Z,98636.78
2023-05-04T15:13:16.874Z,98652.31
2023-05-04T15:15:46.347Z,98689.47
2023-05-04T15:18:15.632Z,98733.72
2023-05-04T15:20:45.569Z,98797.94
2023-05-04T15:23:14.800Z,98862.31
2023-05-04T15:25:44.211Z,98885.56
2023-05-04T15:28:13.539Z,98912.91
2023-05-04T15:30:44.186Z,98937.09
2023-05-04T15:33:13.584Z,98960.13
2023-05-04T15:35:42.752Z,98946.47
2023-05-04T15:38:12.936Z,98948.19
2023-05-04T15:40:41.974Z,98943.31
2023-05-04T15:43:11.486Z,98937.78
2023-05-04T15:45:40.891Z,98926.13
2023-05-04T15:48:12.519Z,98928.59
2023-05-04T15:50:41.976Z,98932.22
2023-05-04T15:53:11.254Z,98938.66
2023-05-04T15:55:41.381Z,98940.13
2023-05-04T15:58:12.236Z,98949.28
2023-05-04T16:00:42.026Z,98964.34
2023-05-04T16:03:12.364Z,98977.44
2023-05-04T16:05:42.218Z,98986.47
2023-05-04T16:08:11.328Z,99003.22
2023-05-04T16:10:40.960Z,99012.94
2023-05-04T16:13:12.419Z,99015.53
2023-05-04T16:15:42.304Z,99007.78
2023-05-04T16:18:12.676Z,99007.72
2023-05-04T16:20:42.411Z,99008.38
2023-05-04T16:23:14.795Z,99004.53
2023-05-04T16:25:45.576Z,99010.66
2023-05-04T16:28:15.270Z,98999.41
2023-05-04T16:30:46.368Z,98983.34
2023-05-04T16:33:16.040Z,98957.63
2023-05-04T16:35:45.369Z,98939.59
2023-05-04T16:38:14.645Z,98921.78
2023-05-04T16:40:44.748Z,98897.06
2023-05-04T16:43:13.765Z,98875.09
2023-05-04T16:45:43.029Z,98869.41
2023-05-04T16:48:12.260Z,98851.28
2023-05-04T16:50:41.846Z,98808.09
2023-05-04T16:53:10.932Z,98764.41
2023-05-04T16:55:40.812Z,98764.56
2023-05-04T16:58:09.883Z,98758.06
2023-05-04T17:00:43.878Z,98743.66
2023-05-04T17:03:14.048Z,98716.03
2023-05-04T17:05:44.324Z,98687.50
2023-05-04T17:08:13.800Z,98652.81
2023-05-04T17:10:44.032Z,98623.19
2023-05-04T17:13:14.019Z,98597.78
2023-05-04T17:15:43.218Z,98607.66
2023-05-04T17:18:12.772Z,98592.81
2023-05-04T17:20:41.923Z,98571.50
2023-05-04T17:23:13.612Z,98558.63
2023-05-04T17:25:43.176Z,98564.09
2023-05-04T17:28:12.457Z,98564.09
2023-05-04T17:30:42.920Z,98579.84
2023-05-04T17:33:12.654Z,98569.66
2023-05-04T17:35:42.888Z,98563.22
2023-05-04T17:38:12.415Z,98554.16
2023-05-04T17:40:41.944Z,98541.25
2023-05-04T17:43:11.839Z,98536.31
2023-05-04T17:45:42.127Z,98539.66
2023-05-04T17:48:11.572Z,98528.25
2023-05-04T17:50:42.551Z,98524.03
2023-05-04T17:53:12.045Z,98522.03
2023-05-04T17:55:41.311Z,98528.63
2023-05-04T17:58:10.690Z,98522.88
2023-05-04T18:00:40.371Z,98518.13
2023-05-04T18:03:12.004Z,98523.59
2023-05-04T18:05:44.808Z,98531.13
2023-05-04T18:08:15.521Z,98514.38
2023-05-04T18:10:45.313Z,98515.13
2023-05-04T18:13:14.831Z,98509.22
2023-05-04T18:15:44.348Z,98515.69
2023-05-04T18:18:13.491Z,98529.06
2023-05-04T18:20:43.312Z,98512.41
2023-05-04T18:23:12.635Z,98507.19
2023-05-04T18:25:42.217Z,98510.66
2023-05-04T18:28:11.697Z,98507.75
2023-05-04T18:30:40.963Z,98517.03
2023-05-04T18:33:10.821Z,98513.25
2023-05-04T18:35:40.424Z,98508.63
2023-05-04T18:38:09.892Z,98508.16
2023-05-04T18:40:39.256Z,98506.81
2023-05-04T18:43:08.310Z,98505.22
2023-05-04T18:45:37.760Z,98508.63
2023-05-04T18:48:07.326Z,98513.84
2023-05-04T18:50:37.575Z,98511.66
2023-05-04T18:53:07.241Z,98509.16
2023-05-04T18:55:37.294Z,98510.13
2023-05-04T18:58:07.104Z,98499.59
2023-05-04T19:00:36.677Z,98504.16
2023-05-04T19:03:10.116Z,98504.44
2023-05-04T19:05:39.710Z,98492.34
2023-05-04T19:08:10.342Z,98492.00
2023-05-04T19:10:39.937Z,98488.53
2023-05-04T19:13:13.022Z,98479.97
2023-05-04T19:15:43.854Z,98480.66
2023-05-04T19:18:13.319Z,98471.88
2023-05-04T19:20:42.764Z,98478.41
2023-05-04T19:23:12.124Z,98469.53
2023-05-04T19:25:42.462Z,98470.59
2023-05-04T19:28:12.894Z,98473.53
2023-05-04T19:30:42.865Z,98471.06
2023-05-04T19:33:12.285Z,98472.91
2023-05-04T19:35:41.656Z,98469.72
2023-05-04T19:38:11.033Z,98458.31
2023-05-04T19:40:42.681Z,98459.41
2023-05-04T19:43:12.970Z,98457.47
2023-05-04T19:45:42.435Z,98466.03
2023-05-04T19:48:14.127Z,98483.31
2023-05-04T19:50:44.240Z,98503.59
2023-05-04T19:53:14.015Z,98526.44
2023-05-04T19:55:47.711Z,98531.22
2023-05-04T19:58:17.750Z,98538.47
2023-05-04T20:00:47.752Z,98537.63
2023-05-04T20:03:18.203Z,98545.22
2023-05-04T20:05:47.639Z,98555.22
2023-05-04T20:08:17.308Z,98563.38
2023-05-04T20:10:46.883Z,98570.38
2023-05-04T20:13:16.140Z,98562.53
2023-05-04T20:15:46.220Z,98564.09
2023-05-04T20:18:15.631Z,98561.97
2023-05-04T20:20:44.760Z,98562.09
2023-05-04T20:23:14.440Z,98554.69
2023-05-04T20:25:44.451Z,98551.81
2023-05-04T20:28:13.879Z,98549.03
2023-05-04T20:30:43.026Z,98534.47
2023-05-04T20:33:12.818Z,98536.97
2023-05-04T20:35:43.196Z,98534.31
2023-05-04T20:38:13.093Z,98543.41
2023-05-04T20:40:42.395Z,98542.81
2023-05-04T20:43:12.425Z,98544.41
2023-05-04T20:45:42.700Z,98543.69
2023-05-04T20:48:12.094Z,98528.63
2023-05-04T20:50:54.941Z,98529.88
2023-05-04T20:53:31.617Z,98527.91
2023-05-04T20:56:08.538Z,98530.72
2023-05-04T20:58:38.156Z,98528.22
2023-05-04T21:01:08.705Z,98529.63
2023-05-04T21:03:38.617Z,98528.53
2023-05-04T21:06:08.487Z,98530.00
2023-05-04T21:08:37.880Z,98524.06
2023-05-04T21:11:07.836Z,98527.84
2023-05-04T21:13:37.371Z,98535.09
2023-05-04T21:16:07.005Z,98531.25
2023-05-04T21:18:37.084Z,98525.34
2023-05-04T21:21:06.943Z,98522.63
2023-05-04T21:23:36.560Z,98529.88
2023-05-04T21:26:06.486Z,98534.63
2023-05-04T21:28:36.438Z,98530.94
2023-05-04T21:31:09.842Z,98523.72
2023-05-04T21:33:39.292Z,98522.16
2023-05-04T21:36:15.769Z,98514.84
2023-05-04T21:38:45.176Z,98513.97
2023-05-04T21:41:18.420Z,98499.41
2023-05-04T21:43:47.889Z,98498.63
2023-05-04T21:46:17.635Z,98505.88
2023-05-04T21:48:47.066Z,98506.16
2023-05-04T21:51:17.586Z,98502.94
2023-05-04T21:53:48.454Z,98495.09
2023-05-04T21:56:19.049Z,98492.16
2023-05-04T21:58:48.395Z,98489.19
2023-05-04T22:01:19.392Z,98482.22
2023-05-04T22:03:48.640Z,98477.81
2023-05-04T22:06:18.661Z,98476.22
2023-05-04T22:08:47.656Z,98467.06
2023-05-04T22:11:16.965Z,98469.78
2023-05-04T22:13:46.096Z,98467.63
2023-05-04T22:16:15.297Z,98458.75
2023-05-04T22:18:44.761Z,98459.75
2023-05-04T22:21:14.052Z,98459.00
2023-05-04T22:23:43.341Z,98457.41
2023-05-04T22:26:13.295Z,98450.88
2023-05-04T22:28:42.584Z,98446.84
2023-05-04T22:31:11.735Z,98443.69
2023-05-04T22:33:41.213Z,98449.28
2023-05-04T22:36:10.629Z,98440.66
2023-05-04T22:38:40.538Z,98446.56
2023-05-04T22:41:09.699Z,98440.72
2023-05-04T22:43:38.763Z,98442.34
2023-05-04T22:46:10.986Z,98447.16
2023-05-04T22:48:40.088Z,98439.09
2023-05-04T22:51:09.721Z,98442.97
2023-05-04T22:53:38.885Z,98439.03
2023-05-04T22:56:08.276Z,98446.56
2023-05-04T22:58:37.449Z,98457.84
2023-05-04T23:01:12.955Z,98451.66
2023-05-04T23:03:42.639Z,98453.53
2023-05-04T23:06:12.029Z,98454.09
2023-05-04T23:08:41.211Z,98451.69
2023-05-04T23:11:10.814Z,98458.66
2023-05-04T23:13:40.947Z,98443.94
2023-05-04T23:16:10.146Z,98453.09
2023-05-04T23:18:39.522Z,98447.56
2023-05-04T23:21:08.892Z,98465.84
2023-05-04T23:23:38.084Z,98463.41
2023-05-04T23:26:07.637Z,98470.41
2023-05-04T23:28:37.105Z,98461.81
2023-05-04T23:31:06.274Z,98467.72
2023-05-04T23:33:35.667Z,98462.16
2023-05-04T23:36:04.817Z,98467.72
2023-05-04T23:38:33.977Z,98467.25
2023-05-04T23:41:07.563Z,98465.44
2023-05-04T23:43:37.034Z,98477.00
2023-05-04T23:46:07.198Z,98486.69
2023-05-04T23:48:36.639Z,98488.25
2023-05-04T23:51:05.991Z,98491.19
2023-05-04T23:53:38.622Z,98490.56
2023-05-04T23:56:08.732Z,98492.47
2023-05-04T23:58:38.374Z,98490.09
